Briefing drone pour Echirolles

Rechercher une autre localisation

Conditions de vol :


Nous sommes le : Jeudi 27 janvier 2022
Il est 20:50 UTC (21:50 LT)

Lever de soleil : 06:36 UTC (07:36 LT)
Coucher de soleil : 17:03 UTC (18:03 LT)

Météo

L'essentiel des conditions de vol

VIGILANCE MÉTÉO FRANCE - Isère (38)
Pas de vigilances particulieres
METAR de LFLS
LFLS 272030Z AUTO 02007KT 7000 BKN009 M03/M04 Q1032

Date d'émission: 27/01/2022
Heure d'émission: 20:30 UTC
Vent: 020° pour 7 KT (13 km/h)
Visibilité horizontale: 7000 m
Plafond :
- Nuages morcelés à 900ft (274m)
Température: -3 °C
Point de rosée: -4 °C
Humidité: 93%
Pression (QNH): 1032 hPa
TAF de LFLS
LFLS 270643Z 2706/2803 CNL

Conditions prévues :

Heure d'émission : Bulletin éffectué le 27 à 06:00 UTC
Prévision : Valide du 27 a 06:00 UTC au 28 a 03:00 UTC
Nuages : à 0ft (0 m)
WEBCAM POUR ECHIROLLES

Réglementation

Voler en sécurité

CARTES AERONAUTIQUE 1/500.000
CARTES VAC (LFLS)
SUP AIP




Chargement des AIP...
NOTAM (ECHIROLLES + Terrain à proximité / FIR )




Chargement des NOTAMS...
CONTACT PREFECTURE 38


Avertissement : Les données mises à disposition sont indicatives. Oxygène Drone ne pourra être tenu responsable de dégâts causés aux biens et aux personnes.